Olympic Valley, CA

2:20 PM PDT on September 01, 2014 (GMT -0700)
Squaw Valley USA | Change Station
CLOSE
Current Station
Personal Weather Station
Location: Olympic Valley, CA
Elevation: 6529 ft
Nearby Weather Stations

Elev 6529 ft 39.20 °N, 120.23 °W | Updated 6 minutes ago

Clear
Clear
79.8 °F
Feels Like 78 °F
N
0.0
Wind Variable Wind from ESE
Gusts 5.0 mph

Today
High -- | Low -- °F
--% Chance of Precip.
Yesterday
High -- | Low -- °F
Precip. -- in
6:29 AM 7:31 PM
Waxing Crescent, 44% visible
Pressure 30.10 in
Visibility 10.0 miles
Clouds Clear
Heat Index 78 °F
Dew Point 35 °F
Humidity 20%
Rainfall 0.00 in
Snow Depth 1 in
UV 10 out of 12
Pollen 9.40 out of 12
Air Quality Not available.
Flu Activity Not available.
METAR KTRK 012045Z 00000KT 10SM SKC 27/01 A3010 RMK NOSPECI

More Conditions Fewer Conditions

Pressure 30.10 in
Visibility 10.0 miles
Clouds Clear
Heat Index 78 °F
Dew Point 35 °F
Humidity 20%
Rainfall 0.00 in
Snow Depth 1 in
UV 10 out of 12
Pollen 9.40 out of 12
Air Quality Not available.
Flu Activity Not available.
METAR KTRK 012045Z 00000KT 10SM SKC 27/01 A3010 RMK NOSPECI

More Conditions Fewer Conditions

10-Day Weather Forecast

Almanac

Astronomy

Sep. 01, 2014 Rise Set
Actual Time 6:29 AM PDT 7:31 PM PDT
Civil Twilight 6:02 AM PDT 7:58 PM PDT
Nautical Twilight 5:29 AM PDT 8:31 PM PDT
Astronomical Twilight 4:55 AM PDT 9:05 PM PDT
Moon 1:17 PM PDT 11:39 PM PDT
Length of Visible Light 13h 56m
Length of Day
13h 01m
Tomorrow will be 2m 27s shorter.
Waxing Crescent, 44% of the Moon is Illuminated
Today
Waxing Crescent
Sep 2
First Quarter
Sep 8
Full
Sep 15
Last Quarter
Sep 24
New

Today's Extremes

State Highs State Lows

Community

WunderPhotos

Upload Photos

1,749,413 photos uploaded!

WunderBlogs® & News

Nearby

Snow Depth

Station Depth Elevation
CSS Lab 1 in 6900 ft
Forestdale Creek 0 in 8029 ft
Leavitt Meadows 0 in 7200 ft
Adin Mountain 0 in 6200 ft

Earthquake Activity

City Distance Mag. Time & Date
Green Valley, California 123 miles 2.5 6:37 AM PDT
2014-08-31
Minimum magnitude displayed is 2.5.

Coastal Water Temperatures

Place Temperature
No Stations Reporting

Nearby Weather Stations